createdAt,value
2019-03-25T00:00:07.635Z,94.70
2019-03-25T00:02:09.861Z,95.20
2019-03-25T00:04:12.100Z,95.60
2019-03-25T00:06:14.634Z,95.80
2019-03-25T00:08:16.862Z,95.90
2019-03-25T00:10:19.369Z,96.30
2019-03-25T00:12:21.610Z,96.70
2019-03-25T00:14:23.854Z,96.40
2019-03-25T00:16:26.073Z,96.30
2019-03-25T00:18:28.306Z,96.50
2019-03-25T00:20:30.533Z,96.70
2019-03-25T00:22:32.758Z,96.80
2019-03-25T00:24:39.112Z,96.30
2019-03-25T00:26:39.193Z,96.20
2019-03-25T00:28:41.426Z,96.50
2019-03-25T00:30:43.646Z,96.30
2019-03-25T00:32:45.868Z,96.10
2019-03-25T00:34:48.101Z,96.80
2019-03-25T00:36:50.317Z,96.70
2019-03-25T00:38:52.542Z,95.70
2019-03-25T00:40:54.762Z,94.10
2019-03-25T00:42:57.266Z,94.30
2019-03-25T00:44:59.738Z,93.90
2019-03-25T00:47:01.953Z,92.70
2019-03-25T00:49:04.185Z,90.90
2019-03-25T00:51:06.410Z,87.20
2019-03-25T00:53:08.641Z,90.30
2019-03-25T00:55:10.862Z,90.30
2019-03-25T00:57:13.082Z,90.20
2019-03-25T00:59:15.322Z,86.40
2019-03-25T01:01:17.650Z,88.00
2019-03-25T01:03:19.891Z,88.50
2019-03-25T01:05:22.113Z,88.40
2019-03-25T01:07:24.885Z,83.90
2019-03-25T01:09:27.105Z,81.00
2019-03-25T01:11:29.318Z,83.90
2019-03-25T01:13:31.541Z,83.00
2019-03-25T01:15:33.760Z,75.60
2019-03-25T01:17:35.965Z,79.70
2019-03-25T01:19:38.200Z,77.50
2019-03-25T01:21:40.409Z,79.50
2019-03-25T01:23:42.877Z,78.70
2019-03-25T01:25:45.101Z,79.50
2019-03-25T01:27:47.325Z,77.00
2019-03-25T01:29:49.549Z,72.60
2019-03-25T01:31:51.770Z,74.00
2019-03-25T01:33:53.989Z,72.00
2019-03-25T01:35:56.204Z,72.10
2019-03-25T01:37:58.434Z,72.00
2019-03-25T01:40:00.657Z,73.70
2019-03-25T01:42:02.879Z,76.70
2019-03-25T01:44:05.212Z,78.10
2019-03-25T01:46:07.432Z,73.10
2019-03-25T01:48:09.646Z,76.20
2019-03-25T01:50:11.874Z,73.60
2019-03-25T01:52:14.089Z,71.90
2019-03-25T01:54:16.346Z,72.50
2019-03-25T01:56:18.567Z,71.20
2019-03-25T01:58:20.784Z,70.10
2019-03-25T02:00:23.026Z,73.10
2019-03-25T02:02:25.249Z,72.80
2019-03-25T02:04:27.480Z,74.20
2019-03-25T02:06:29.702Z,76.80
2019-03-25T02:08:31.926Z,84.00
2019-03-25T02:10:34.253Z,90.70
2019-03-25T02:12:36.477Z,94.50
2019-03-25T02:14:38.983Z,94.30
2019-03-25T02:16:41.237Z,95.80
2019-03-25T02:18:43.474Z,96.20
2019-03-25T02:20:46.033Z,96.60
2019-03-25T02:22:48.641Z,98.30
2019-03-25T02:24:51.174Z,97.10
2019-03-25T02:26:53.401Z,97.90
2019-03-25T02:28:55.974Z,99.40
2019-03-25T02:30:58.782Z,99.90
2019-03-25T02:33:01.011Z,99.90
2019-03-25T02:35:03.360Z,99.90
2019-03-25T02:37:05.580Z,99.90
2019-03-25T02:39:07.815Z,99.90
2019-03-25T02:41:10.025Z,99.90
2019-03-25T02:43:12.267Z,99.90
2019-03-25T02:45:14.491Z,99.90
2019-03-25T02:47:16.715Z,99.90
2019-03-25T02:49:18.959Z,99.90
2019-03-25T02:51:21.189Z,99.90
2019-03-25T02:53:23.404Z,99.90
2019-03-25T02:55:40.250Z,99.90
2019-03-25T02:57:29.755Z,99.90
2019-03-25T02:59:31.998Z,99.90
2019-03-25T03:01:34.242Z,99.90
2019-03-25T03:03:36.740Z,99.90
2019-03-25T03:05:38.974Z,99.90
2019-03-25T03:07:41.198Z,98.60
2019-03-25T03:09:43.432Z,99.90
2019-03-25T03:11:45.649Z,99.90
2019-03-25T03:13:47.875Z,99.90
2019-03-25T03:15:50.102Z,99.90
2019-03-25T03:17:52.332Z,99.90
2019-03-25T03:19:55.354Z,99.90
2019-03-25T03:21:57.982Z,99.90
2019-03-25T03:24:00.213Z,99.90
2019-03-25T03:26:02.445Z,99.90
2019-03-25T03:28:04.669Z,99.90
2019-03-25T03:30:06.940Z,99.90
2019-03-25T03:32:09.158Z,99.90
2019-03-25T03:34:11.378Z,99.90
2019-03-25T03:36:13.886Z,99.90
2019-03-25T03:38:16.398Z,99.90
2019-03-25T03:40:18.738Z,99.90
2019-03-25T03:42:21.299Z,99.90
2019-03-25T03:44:24.241Z,99.90
2019-03-25T03:46:26.490Z,99.90
2019-03-25T03:48:28.795Z,99.90
2019-03-25T03:50:31.026Z,99.90
2019-03-25T03:52:33.973Z,99.90
2019-03-25T03:54:36.189Z,99.90
2019-03-25T03:56:38.464Z,99.90
2019-03-25T03:58:41.158Z,99.90
2019-03-25T04:00:43.389Z,99.90
2019-03-25T04:02:45.611Z,99.90
2019-03-25T04:04:47.834Z,99.90
2019-03-25T04:06:50.077Z,99.90
2019-03-25T04:08:52.300Z,99.90
2019-03-25T04:10:54.523Z,99.90
2019-03-25T04:12:57.676Z,99.90
2019-03-25T04:14:59.890Z,99.90
2019-03-25T04:17:02.109Z,99.90
2019-03-25T04:19:04.587Z,99.90
2019-03-25T04:21:06.833Z,99.90
2019-03-25T04:23:09.149Z,99.90
2019-03-25T04:25:11.672Z,99.90
2019-03-25T04:27:13.904Z,99.90
2019-03-25T04:29:16.123Z,99.90
2019-03-25T04:31:18.354Z,99.90
2019-03-25T04:33:20.570Z,99.90
2019-03-25T04:35:22.788Z,99.90
2019-03-25T04:37:25.017Z,99.90
2019-03-25T04:39:27.522Z,99.90
2019-03-25T04:41:29.753Z,99.90
2019-03-25T04:43:31.971Z,99.90
2019-03-25T04:45:34.208Z,99.90
2019-03-25T04:47:36.429Z,99.90
2019-03-25T04:49:38.645Z,99.90
2019-03-25T04:51:40.879Z,99.90
2019-03-25T04:53:43.098Z,99.90
2019-03-25T04:55:45.322Z,99.90
2019-03-25T04:57:47.549Z,99.90
2019-03-25T04:59:49.786Z,99.90
2019-03-25T05:01:52.022Z,99.90
2019-03-25T05:03:54.296Z,99.90
2019-03-25T05:05:56.576Z,99.90
2019-03-25T05:07:58.796Z,99.90
2019-03-25T05:10:01.017Z,99.90
2019-03-25T05:12:03.255Z,99.90
2019-03-25T05:14:05.475Z,99.90
2019-03-25T05:16:07.709Z,99.90
2019-03-25T05:18:09.934Z,99.90
2019-03-25T05:20:12.153Z,99.90
2019-03-25T05:22:14.386Z,99.90
2019-03-25T05:24:16.605Z,99.90
2019-03-25T05:26:19.161Z,99.90
2019-03-25T05:28:21.384Z,99.90
2019-03-25T05:30:23.642Z,99.90
2019-03-25T05:32:25.873Z,99.90
2019-03-25T05:34:28.441Z,99.90
2019-03-25T05:36:30.673Z,99.90
2019-03-25T05:38:32.900Z,99.90
2019-03-25T05:40:35.238Z,99.90
2019-03-25T05:42:37.470Z,99.90
2019-03-25T05:44:39.689Z,99.90
2019-03-25T05:46:41.935Z,99.90
2019-03-25T05:48:44.153Z,99.90
2019-03-25T05:50:46.377Z,99.90
2019-03-25T05:52:48.605Z,99.90
2019-03-25T05:54:51.150Z,99.90
2019-03-25T05:57:02.034Z,99.90
2019-03-25T05:58:57.741Z,99.90
2019-03-25T06:01:00.210Z,99.90
2019-03-25T06:03:02.435Z,99.90
2019-03-25T06:05:04.877Z,99.90
2019-03-25T06:07:07.102Z,99.90
2019-03-25T06:09:09.317Z,99.90
2019-03-25T06:11:11.541Z,99.90
2019-03-25T06:13:13.770Z,99.90
2019-03-25T06:15:16.309Z,99.90
2019-03-25T06:17:18.556Z,99.90
2019-03-25T06:19:21.206Z,99.90
2019-03-25T06:21:25.802Z,99.90
2019-03-25T06:23:28.030Z,99.90
2019-03-25T06:25:30.250Z,99.90
2019-03-25T06:27:32.486Z,99.90
2019-03-25T06:29:34.710Z,99.90
2019-03-25T06:31:36.937Z,99.90
2019-03-25T06:33:39.164Z,99.90
2019-03-25T06:35:41.386Z,99.90
2019-03-25T06:37:43.618Z,99.90
2019-03-25T06:39:45.840Z,99.90
2019-03-25T06:41:48.070Z,99.90
2019-03-25T06:43:50.302Z,99.90
2019-03-25T06:45:52.517Z,99.90
2019-03-25T06:47:54.756Z,99.90
2019-03-25T06:49:56.986Z,99.90
2019-03-25T06:51:59.218Z,99.90
2019-03-25T06:54:01.778Z,99.90
2019-03-25T06:56:04.001Z,99.90
2019-03-25T06:58:06.238Z,99.40
2019-03-25T07:00:08.537Z,99.90
2019-03-25T07:02:10.766Z,99.90
2019-03-25T07:04:12.978Z,99.90
2019-03-25T07:06:15.199Z,99.90
2019-03-25T07:08:17.437Z,99.90
2019-03-25T07:10:30.594Z,99.90
2019-03-25T07:12:32.823Z,99.90
2019-03-25T07:14:35.040Z,99.90
2019-03-25T07:16:37.262Z,99.90
2019-03-25T07:18:39.502Z,99.90
2019-03-25T07:20:41.725Z,99.90
2019-03-25T07:22:44.254Z,99.90
2019-03-25T07:24:46.473Z,99.90
2019-03-25T07:26:48.741Z,99.90
2019-03-25T07:28:51.019Z,99.90
2019-03-25T07:30:53.337Z,99.90
2019-03-25T07:32:55.605Z,99.90
2019-03-25T07:34:58.087Z,99.90
2019-03-25T07:37:00.319Z,99.90
2019-03-25T07:39:04.138Z,99.90
2019-03-25T07:41:06.358Z,99.90
2019-03-25T07:43:08.961Z,99.90
2019-03-25T07:45:11.355Z,99.90
2019-03-25T07:47:13.578Z,99.90
2019-03-25T07:49:15.798Z,99.90
2019-03-25T07:51:18.028Z,99.90
2019-03-25T07:53:20.237Z,99.90
2019-03-25T07:55:22.467Z,99.90
2019-03-25T07:57:24.715Z,99.90
2019-03-25T07:59:27.052Z,99.90
2019-03-25T08:01:29.369Z,99.90
2019-03-25T08:03:31.664Z,99.90
2019-03-25T08:05:33.925Z,99.90
2019-03-25T08:07:36.215Z,99.90
2019-03-25T08:09:38.776Z,99.90
2019-03-25T08:11:40.985Z,99.90
2019-03-25T08:13:43.631Z,99.90
2019-03-25T08:15:45.843Z,99.90
2019-03-25T08:17:48.081Z,99.90
2019-03-25T08:19:50.301Z,99.90
2019-03-25T08:21:52.517Z,99.90
2019-03-25T08:23:54.762Z,99.90
2019-03-25T08:25:57.069Z,99.90
2019-03-25T08:28:00.476Z,99.90
2019-03-25T08:30:03.765Z,99.90
2019-03-25T08:32:06.014Z,99.90
2019-03-25T08:34:08.246Z,99.90
2019-03-25T08:36:10.467Z,99.90
2019-03-25T08:38:12.698Z,99.90
2019-03-25T08:40:14.941Z,99.90
2019-03-25T08:42:17.185Z,99.90
2019-03-25T08:44:19.417Z,99.90
2019-03-25T08:46:21.677Z,99.90
2019-03-25T08:48:23.905Z,99.90
2019-03-25T08:50:26.127Z,99.90
2019-03-25T08:52:28.342Z,99.90
2019-03-25T08:54:30.821Z,99.90
2019-03-25T08:56:33.042Z,99.90
2019-03-25T08:58:35.277Z,99.90
2019-03-25T09:00:37.842Z,99.90
2019-03-25T09:02:40.069Z,99.90
2019-03-25T09:04:42.291Z,99.90
2019-03-25T09:06:44.510Z,99.90
2019-03-25T09:08:46.747Z,99.90
2019-03-25T09:10:48.966Z,99.90
2019-03-25T09:12:51.185Z,99.90
2019-03-25T09:14:53.413Z,99.90
2019-03-25T09:16:55.631Z,99.90
2019-03-25T09:18:58.135Z,99.90
2019-03-25T09:21:00.353Z,99.90
2019-03-25T09:23:02.611Z,99.90
2019-03-25T09:25:05.734Z,99.90
2019-03-25T09:27:08.245Z,99.90
2019-03-25T09:29:10.793Z,99.90
2019-03-25T09:31:14.380Z,99.90
2019-03-25T09:33:16.637Z,99.90
2019-03-25T09:35:18.862Z,99.90
2019-03-25T09:37:21.409Z,99.90
2019-03-25T09:39:23.651Z,99.90
2019-03-25T09:41:25.873Z,99.90
2019-03-25T09:43:28.114Z,99.90
2019-03-25T09:45:30.345Z,99.90
2019-03-25T09:47:32.578Z,99.90
2019-03-25T09:49:34.813Z,99.90
2019-03-25T09:51:37.051Z,99.90
2019-03-25T09:53:39.283Z,99.90
2019-03-25T09:55:41.508Z,99.90
2019-03-25T09:57:43.736Z,99.90
2019-03-25T09:59:46.017Z,99.90
2019-03-25T10:01:48.278Z,99.90
2019-03-25T10:03:50.511Z,99.90
2019-03-25T10:05:52.753Z,99.90
2019-03-25T10:07:54.977Z,99.90
2019-03-25T10:09:57.217Z,98.40
2019-03-25T10:11:59.719Z,97.30
2019-03-25T10:14:01.949Z,96.70
2019-03-25T10:16:04.213Z,99.90
2019-03-25T10:18:06.430Z,99.90
2019-03-25T10:20:08.718Z,99.90
2019-03-25T10:22:10.937Z,99.90
2019-03-25T10:24:13.557Z,99.90
2019-03-25T10:26:15.845Z,99.90
2019-03-25T10:28:18.070Z,99.90
2019-03-25T10:30:21.418Z,99.90
2019-03-25T10:32:23.638Z,99.90
2019-03-25T10:34:25.878Z,99.90
2019-03-25T10:36:28.101Z,99.90
2019-03-25T10:38:30.925Z,99.90
2019-03-25T10:40:33.745Z,99.90
2019-03-25T10:42:35.961Z,99.30
2019-03-25T10:44:38.465Z,97.70
2019-03-25T10:46:40.692Z,96.60
2019-03-25T10:48:42.901Z,97.20
2019-03-25T10:50:45.129Z,99.80
2019-03-25T10:52:47.349Z,97.60
2019-03-25T10:54:49.631Z,98.20
2019-03-25T10:56:52.198Z,97.80
2019-03-25T10:58:58.205Z,91.50
2019-03-25T11:00:59.314Z,93.50
2019-03-25T11:03:01.534Z,90.10
2019-03-25T11:05:04.285Z,89.50
2019-03-25T11:07:06.521Z,84.90
2019-03-25T11:09:08.825Z,78.70
2019-03-25T11:11:11.054Z,64.30
2019-03-25T11:13:13.838Z,77.00
2019-03-25T11:15:16.178Z,68.30
2019-03-25T11:17:18.389Z,57.70
2019-03-25T11:19:20.598Z,62.20
2019-03-25T11:21:22.826Z,62.40
2019-03-25T11:23:25.038Z,67.30
2019-03-25T11:25:27.583Z,58.90
2019-03-25T11:27:30.127Z,63.10
2019-03-25T11:29:32.366Z,66.20
2019-03-25T11:31:34.585Z,62.50
2019-03-25T11:33:36.797Z,58.50
2019-03-25T11:35:39.029Z,57.20
2019-03-25T11:37:41.247Z,59.20
2019-03-25T11:39:43.469Z,54.50
2019-03-25T11:41:45.686Z,52.80
2019-03-25T11:43:47.901Z,54.90
2019-03-25T11:45:50.153Z,57.80
2019-03-25T11:47:52.369Z,60.90
2019-03-25T11:49:54.599Z,64.20
2019-03-25T11:51:56.834Z,71.50
2019-03-25T11:53:59.121Z,82.00
2019-03-25T11:56:01.633Z,90.00
2019-03-25T11:58:03.845Z,92.20
2019-03-25T12:00:07.161Z,94.00
2019-03-25T12:02:17.252Z,94.80
2019-03-25T12:04:13.473Z,91.60
2019-03-25T12:06:15.962Z,67.30
2019-03-25T12:08:18.189Z,57.80
2019-03-25T12:10:20.413Z,40.60
2019-03-25T12:12:22.633Z,29.80
2019-03-25T12:14:24.850Z,25.60
2019-03-25T12:16:27.402Z,21.40
2019-03-25T12:18:29.628Z,18.60
2019-03-25T12:20:31.909Z,9.10
2019-03-25T12:22:34.126Z,8.10
2019-03-25T12:24:36.341Z,10.50
2019-03-25T12:26:38.574Z,5.10
2019-03-25T12:28:40.845Z,11.50
2019-03-25T12:30:43.118Z,13.00
2019-03-25T12:32:45.342Z,12.80
2019-03-25T12:34:47.561Z,13.80
2019-03-25T12:36:49.790Z,24.50
2019-03-25T12:38:52.330Z,17.80
2019-03-25T12:40:54.558Z,11.30
2019-03-25T12:42:56.777Z,8.40
2019-03-25T12:44:58.998Z,4.20
2019-03-25T12:47:01.221Z,1.20
2019-03-25T12:49:03.439Z,2.70
2019-03-25T12:51:05.989Z,4.10
2019-03-25T12:53:08.205Z,6.20
2019-03-25T12:55:10.742Z,11.10
2019-03-25T12:57:12.977Z,10.20
2019-03-25T12:59:15.202Z,10.50
2019-03-25T13:01:17.429Z,7.70
2019-03-25T13:03:19.646Z,4.50
2019-03-25T13:05:21.861Z,3.30
2019-03-25T13:07:24.089Z,3.80
2019-03-25T13:09:26.314Z,1.40
2019-03-25T13:11:28.544Z,1.00
2019-03-25T13:13:30.755Z,1.00
2019-03-25T13:15:32.972Z,1.00
2019-03-25T13:17:35.213Z,1.00
2019-03-25T13:19:37.425Z,1.00
2019-03-25T13:21:39.653Z,1.00
2019-03-25T13:23:41.870Z,1.00
2019-03-25T13:25:44.138Z,1.00
2019-03-25T13:27:46.452Z,1.00
2019-03-25T13:29:52.857Z,1.00
2019-03-25T13:31:52.802Z,1.00
2019-03-25T13:33:55.025Z,1.00
2019-03-25T13:35:57.590Z,1.00
2019-03-25T13:37:59.810Z,1.00
2019-03-25T13:40:02.205Z,1.00
2019-03-25T13:42:04.534Z,1.00
2019-03-25T13:44:06.758Z,1.00
2019-03-25T13:46:08.989Z,1.00
2019-03-25T13:48:11.200Z,1.00
2019-03-25T13:50:13.438Z,1.00
2019-03-25T13:52:15.666Z,1.00
2019-03-25T13:54:17.881Z,1.00
2019-03-25T13:56:20.101Z,2.90
2019-03-25T13:58:22.313Z,8.20
2019-03-25T14:00:34.831Z,9.30
2019-03-25T14:02:37.057Z,13.50
2019-03-25T14:04:39.550Z,18.40
2019-03-25T14:06:41.777Z,18.40
2019-03-25T14:08:43.990Z,22.50
2019-03-25T14:10:46.204Z,36.80
2019-03-25T14:12:48.430Z,31.80
2019-03-25T14:14:50.917Z,34.70
2019-03-25T14:16:53.141Z,23.40
2019-03-25T14:18:55.366Z,24.00
2019-03-25T14:20:57.573Z,18.60
2019-03-25T14:22:59.785Z,24.90
2019-03-25T14:25:01.998Z,23.90
2019-03-25T14:27:04.233Z,15.60
2019-03-25T14:29:06.438Z,23.50
2019-03-25T14:31:08.649Z,20.90
2019-03-25T14:33:10.886Z,22.50
2019-03-25T14:35:13.110Z,23.40
2019-03-25T14:37:15.338Z,26.80
2019-03-25T14:39:20.588Z,38.30
2019-03-25T14:41:23.326Z,68.00
2019-03-25T14:43:25.577Z,80.00
2019-03-25T14:45:27.796Z,88.90
2019-03-25T14:47:30.026Z,82.50
2019-03-25T14:49:32.246Z,88.50
2019-03-25T14:51:34.466Z,90.80
2019-03-25T14:53:44.750Z,89.80
2019-03-25T14:55:40.818Z,87.60
2019-03-25T14:57:43.387Z,91.40
2019-03-25T14:59:45.621Z,90.50
2019-03-25T15:01:48.154Z,91.30
2019-03-25T15:03:50.385Z,94.20
2019-03-25T15:05:52.606Z,93.50
2019-03-25T15:07:55.128Z,89.10
2019-03-25T15:09:57.345Z,79.60
2019-03-25T15:11:59.561Z,73.30
2019-03-25T15:14:01.805Z,75.90
2019-03-25T15:16:04.025Z,77.50
2019-03-25T15:18:15.245Z,75.10
2019-03-25T15:20:10.842Z,71.70
2019-03-25T15:22:13.053Z,74.50
2019-03-25T15:24:15.275Z,68.80
2019-03-25T15:26:17.489Z,69.00
2019-03-25T15:28:19.713Z,68.80
2019-03-25T15:30:21.942Z,70.30
2019-03-25T15:32:24.171Z,73.60
2019-03-25T15:34:26.390Z,73.50
2019-03-25T15:36:28.609Z,77.00
2019-03-25T15:38:31.093Z,79.20
2019-03-25T15:40:33.427Z,80.90
2019-03-25T15:42:35.926Z,85.10
2019-03-25T15:44:38.475Z,81.90
2019-03-25T15:46:40.697Z,80.00
2019-03-25T15:48:42.930Z,87.00
2019-03-25T15:50:45.145Z,87.60
2019-03-25T15:52:48.030Z,87.80
2019-03-25T15:54:50.249Z,88.30
2019-03-25T15:56:52.461Z,87.40
2019-03-25T15:58:54.692Z,85.50
2019-03-25T16:00:57.229Z,87.30
2019-03-25T16:02:59.451Z,87.20
2019-03-25T16:05:02.001Z,84.60
2019-03-25T16:07:04.786Z,86.80
2019-03-25T16:09:07.315Z,89.70
2019-03-25T16:11:09.529Z,84.90
2019-03-25T16:13:11.863Z,87.60
2019-03-25T16:15:41.997Z,84.40
2019-03-25T16:17:44.305Z,87.30
2019-03-25T16:19:46.535Z,89.30
2019-03-25T16:21:49.170Z,87.50
2019-03-25T16:23:51.390Z,90.50
2019-03-25T16:25:53.614Z,88.40
2019-03-25T16:27:55.836Z,88.70
2019-03-25T16:29:58.066Z,90.30
2019-03-25T16:32:00.290Z,90.80
2019-03-25T16:34:02.525Z,91.40
2019-03-25T16:36:04.745Z,92.00
2019-03-25T16:38:06.977Z,91.80
2019-03-25T16:40:09.199Z,91.90
2019-03-25T16:42:11.417Z,92.80
2019-03-25T16:44:13.641Z,93.20
2019-03-25T16:46:15.863Z,93.30
2019-03-25T16:48:18.132Z,94.50
2019-03-25T16:50:20.446Z,94.80
2019-03-25T16:52:22.658Z,94.20
2019-03-25T16:54:24.890Z,93.40
2019-03-25T16:56:27.112Z,93.80
2019-03-25T16:58:29.337Z,92.40
2019-03-25T17:00:31.854Z,90.90
2019-03-25T17:02:34.067Z,92.50
2019-03-25T17:04:36.294Z,92.40
2019-03-25T17:06:38.520Z,92.40
2019-03-25T17:08:40.746Z,93.20
2019-03-25T17:10:42.969Z,93.10
2019-03-25T17:12:45.193Z,94.20
2019-03-25T17:14:47.437Z,94.20
2019-03-25T17:16:49.658Z,94.60
2019-03-25T17:18:51.898Z,95.10
2019-03-25T17:20:54.374Z,95.20
2019-03-25T17:22:56.589Z,95.40
2019-03-25T17:24:58.822Z,95.50
2019-03-25T17:27:01.037Z,95.60
2019-03-25T17:29:03.277Z,96.30
2019-03-25T17:31:06.158Z,96.30
2019-03-25T17:33:08.720Z,95.50
2019-03-25T17:35:11.043Z,95.90
2019-03-25T17:37:13.274Z,95.80
2019-03-25T17:39:15.500Z,96.20
2019-03-25T17:41:17.977Z,97.10
2019-03-25T17:43:20.202Z,97.70
2019-03-25T17:45:22.466Z,97.50
2019-03-25T17:47:24.956Z,97.80
2019-03-25T17:49:27.189Z,97.80
2019-03-25T17:51:29.404Z,98.20
2019-03-25T17:53:33.693Z,98.20
2019-03-25T17:55:35.981Z,99.10
2019-03-25T17:57:38.204Z,99.50
2019-03-25T17:59:40.458Z,99.50
2019-03-25T18:01:42.673Z,99.90
2019-03-25T18:03:45.150Z,99.90
2019-03-25T18:05:47.394Z,99.90
2019-03-25T18:07:49.878Z,99.90
2019-03-25T18:09:52.122Z,99.90
2019-03-25T18:11:54.336Z,99.90
2019-03-25T18:13:57.085Z,99.90
2019-03-25T18:15:59.377Z,99.90
2019-03-25T18:18:01.962Z,99.90
2019-03-25T18:20:05.312Z,99.90
2019-03-25T18:22:07.538Z,99.90
2019-03-25T18:24:09.761Z,99.90
2019-03-25T18:26:11.986Z,99.90
2019-03-25T18:28:14.219Z,99.90
2019-03-25T18:30:21.121Z,99.90
2019-03-25T18:32:23.649Z,99.90
2019-03-25T18:34:25.891Z,99.90
2019-03-25T18:36:28.110Z,99.90
2019-03-25T18:38:30.333Z,99.90
2019-03-25T18:40:32.574Z,99.90
2019-03-25T18:42:34.800Z,99.90
2019-03-25T18:44:37.034Z,99.90
2019-03-25T18:46:39.261Z,99.90
2019-03-25T18:48:41.473Z,99.90
2019-03-25T18:50:43.713Z,99.90
2019-03-25T18:52:46.212Z,99.90
2019-03-25T18:54:48.444Z,99.90
2019-03-25T18:56:50.657Z,99.90
2019-03-25T18:58:52.877Z,99.90
2019-03-25T19:00:55.126Z,99.90
2019-03-25T19:02:57.354Z,99.90
2019-03-25T19:04:59.598Z,99.90
2019-03-25T19:07:01.814Z,99.90
2019-03-25T19:09:06.246Z,99.90
2019-03-25T19:11:08.464Z,99.90
2019-03-25T19:13:10.685Z,99.90
2019-03-25T19:15:13.009Z,99.90
2019-03-25T19:17:15.226Z,99.90
2019-03-25T19:19:17.466Z,99.90
2019-03-25T19:21:19.784Z,99.90
2019-03-25T19:23:22.006Z,99.90
2019-03-25T19:25:24.243Z,99.90
2019-03-25T19:27:26.778Z,99.90
2019-03-25T19:29:28.993Z,99.90
2019-03-25T19:31:31.641Z,99.90
2019-03-25T19:33:33.851Z,99.90
2019-03-25T19:35:36.095Z,99.90
2019-03-25T19:37:38.401Z,99.90
2019-03-25T19:39:40.990Z,99.90
2019-03-25T19:41:43.261Z,99.90
2019-03-25T19:43:45.579Z,99.90
2019-03-25T19:45:47.893Z,99.90
2019-03-25T19:47:50.117Z,99.90
2019-03-25T19:49:52.731Z,99.90
2019-03-25T19:51:55.414Z,99.90
2019-03-25T19:53:57.712Z,99.90
2019-03-25T19:56:00.025Z,99.90
2019-03-25T19:58:02.282Z,99.90
2019-03-25T20:00:05.955Z,99.90
2019-03-25T20:02:18.518Z,99.90
2019-03-25T20:04:12.701Z,99.90
2019-03-25T20:06:25.719Z,99.90
2019-03-25T20:08:19.171Z,99.90
2019-03-25T20:10:28.487Z,99.90
2019-03-25T20:12:30.957Z,99.90
2019-03-25T20:14:33.231Z,99.90
2019-03-25T20:16:35.496Z,99.90
2019-03-25T20:18:37.785Z,99.90
2019-03-25T20:20:40.093Z,99.90
2019-03-25T20:22:42.382Z,99.90
2019-03-25T20:24:44.661Z,99.90
2019-03-25T20:26:46.935Z,99.90
2019-03-25T20:28:49.153Z,99.90
2019-03-25T20:30:51.578Z,99.90
2019-03-25T20:32:53.886Z,99.90
2019-03-25T20:34:56.105Z,99.90
2019-03-25T20:36:58.364Z,99.90
2019-03-25T20:39:00.996Z,99.90
2019-03-25T20:41:03.292Z,99.90
2019-03-25T20:43:05.556Z,99.90
2019-03-25T20:45:08.283Z,99.90
2019-03-25T20:47:10.591Z,99.90
2019-03-25T20:49:12.897Z,99.90
2019-03-25T20:51:15.246Z,99.90
2019-03-25T20:53:17.544Z,99.90
2019-03-25T20:55:19.830Z,99.90
2019-03-25T20:57:22.112Z,99.90
2019-03-25T20:59:24.428Z,99.90
2019-03-25T21:01:26.811Z,99.90
2019-03-25T21:03:29.107Z,99.90
2019-03-25T21:05:31.407Z,99.90
2019-03-25T21:07:33.670Z,99.90
2019-03-25T21:09:36.053Z,99.90
2019-03-25T21:11:38.518Z,99.90
2019-03-25T21:13:41.232Z,99.90
2019-03-25T21:15:43.535Z,99.90
2019-03-25T21:17:46.802Z,99.90
2019-03-25T21:19:49.226Z,99.90
2019-03-25T21:21:51.997Z,99.90
2019-03-25T21:23:54.321Z,99.90
2019-03-25T21:25:56.578Z,99.90
2019-03-25T21:27:58.822Z,99.90
2019-03-25T21:30:01.037Z,99.90
2019-03-25T21:32:03.621Z,99.90
2019-03-25T21:34:06.166Z,99.90
2019-03-25T21:36:08.569Z,99.90
2019-03-25T21:38:11.091Z,99.90
2019-03-25T21:40:13.673Z,99.90
2019-03-25T21:42:15.974Z,99.90
2019-03-25T21:44:18.346Z,99.90
2019-03-25T21:46:20.759Z,99.90
2019-03-25T21:48:23.339Z,99.90
2019-03-25T21:50:25.574Z,99.90
2019-03-25T21:52:27.963Z,99.90
2019-03-25T21:54:30.242Z,99.90
2019-03-25T21:56:32.597Z,99.90
2019-03-25T21:58:34.967Z,99.90
2019-03-25T22:00:37.555Z,99.90
2019-03-25T22:02:39.853Z,99.90
2019-03-25T22:04:42.068Z,99.90
2019-03-25T22:06:44.285Z,99.90
2019-03-25T22:08:46.525Z,99.90
2019-03-25T22:10:48.758Z,99.90
2019-03-25T22:12:50.985Z,99.90
2019-03-25T22:14:53.213Z,99.90
2019-03-25T22:16:55.441Z,99.90
2019-03-25T22:18:57.677Z,99.90
2019-03-25T22:20:59.898Z,99.90
2019-03-25T22:23:02.134Z,99.90
2019-03-25T22:25:04.681Z,99.90
2019-03-25T22:27:06.938Z,99.90
2019-03-25T22:29:09.158Z,99.90
2019-03-25T22:31:11.374Z,99.90
2019-03-25T22:33:25.243Z,99.90
2019-03-25T22:35:17.755Z,99.90
2019-03-25T22:37:19.993Z,99.90
2019-03-25T22:39:22.209Z,99.90
2019-03-25T22:41:24.524Z,99.90
2019-03-25T22:43:26.961Z,99.90
2019-03-25T22:45:30.218Z,99.90
2019-03-25T22:47:32.446Z,99.90
2019-03-25T22:49:34.661Z,99.90
2019-03-25T22:51:37.136Z,99.90
2019-03-25T22:53:39.366Z,99.90
2019-03-25T22:55:41.850Z,99.90
2019-03-25T22:57:44.525Z,99.90
2019-03-25T22:59:46.749Z,99.90
2019-03-25T23:01:48.971Z,99.90
2019-03-25T23:03:51.208Z,99.90
2019-03-25T23:05:53.433Z,99.90
2019-03-25T23:07:55.666Z,99.90
2019-03-25T23:09:57.884Z,99.90
2019-03-25T23:12:00.112Z,99.90
2019-03-25T23:14:02.340Z,99.90
2019-03-25T23:16:04.561Z,99.90
2019-03-25T23:18:07.138Z,99.90
2019-03-25T23:20:09.366Z,99.90
2019-03-25T23:22:11.582Z,99.90
2019-03-25T23:24:13.812Z,99.90
2019-03-25T23:26:16.032Z,99.90
2019-03-25T23:28:18.256Z,99.90
2019-03-25T23:30:20.791Z,99.90
2019-03-25T23:32:23.005Z,99.90
2019-03-25T23:34:25.238Z,99.90
2019-03-25T23:36:27.558Z,99.90
2019-03-25T23:38:29.790Z,99.90
2019-03-25T23:40:32.013Z,99.90
2019-03-25T23:42:34.234Z,99.90
2019-03-25T23:44:36.461Z,99.90
2019-03-25T23:46:38.958Z,99.90
2019-03-25T23:48:41.192Z,99.90
2019-03-25T23:50:43.408Z,99.90
2019-03-25T23:52:45.637Z,99.90
2019-03-25T23:54:48.201Z,99.90
2019-03-25T23:56:50.424Z,99.90
2019-03-25T23:58:52.657Z,99.90
